createdAt,value
2023-05-05T00:00:00.283Z,11.30
2023-05-05T00:02:26.940Z,11.30
2023-05-05T00:04:53.598Z,11.30
2023-05-05T00:07:20.331Z,11.30
2023-05-05T00:09:47.001Z,11.30
2023-05-05T00:12:13.607Z,11.20
2023-05-05T00:14:41.465Z,11.20
2023-05-05T00:17:08.066Z,11.20
2023-05-05T00:19:34.638Z,11.10
2023-05-05T00:22:01.175Z,11.20
2023-05-05T00:24:27.702Z,11.10
2023-05-05T00:26:54.293Z,11.10
2023-05-05T00:29:20.959Z,11.00
2023-05-05T00:31:47.564Z,11.00
2023-05-05T00:34:14.107Z,11.00
2023-05-05T00:36:41.319Z,11.10
2023-05-05T00:39:07.866Z,11.00
2023-05-05T00:41:34.494Z,11.10
2023-05-05T00:44:01.365Z,11.00
2023-05-05T00:46:30.964Z,11.00
2023-05-05T00:48:57.930Z,11.00
2023-05-05T00:51:25.155Z,10.90
2023-05-05T00:53:51.972Z,10.90
2023-05-05T00:56:21.838Z,10.90
2023-05-05T00:58:49.266Z,10.90
2023-05-05T01:01:17.604Z,10.90
2023-05-05T01:03:44.388Z,10.80
2023-05-05T01:06:41.849Z,10.80
2023-05-05T01:09:39.727Z,10.70
2023-05-05T01:12:14.068Z,10.70
2023-05-05T01:14:45.120Z,10.70
2023-05-05T01:17:29.114Z,10.70
2023-05-05T01:20:26.314Z,10.70
2023-05-05T01:23:08.553Z,10.60
2023-05-05T01:26:05.450Z,10.60
2023-05-05T01:29:00.407Z,10.50
2023-05-05T01:31:38.964Z,10.50
2023-05-05T01:34:09.559Z,10.50
2023-05-05T01:36:39.934Z,10.50
2023-05-05T01:39:12.181Z,10.50
2023-05-05T01:41:42.912Z,10.50
2023-05-05T01:44:11.588Z,10.50
2023-05-05T01:46:38.273Z,10.50
2023-05-05T01:49:06.538Z,10.50
2023-05-05T01:51:34.444Z,10.50
2023-05-05T01:54:05.099Z,10.50
2023-05-05T01:56:33.011Z,10.40
2023-05-05T01:59:01.638Z,10.40
2023-05-05T02:01:30.053Z,10.40
2023-05-05T02:03:58.666Z,10.40
2023-05-05T02:06:28.024Z,10.30
2023-05-05T02:08:55.470Z,10.30
2023-05-05T02:11:22.259Z,10.30
2023-05-05T02:13:50.471Z,10.30
2023-05-05T02:16:18.589Z,10.20
2023-05-05T02:18:47.027Z,10.20
2023-05-05T02:21:14.760Z,10.10
2023-05-05T02:23:41.424Z,10.10
2023-05-05T02:26:09.676Z,10.10
2023-05-05T02:29:05.666Z,10.10
2023-05-05T02:31:37.342Z,10.10
2023-05-05T02:34:07.154Z,10.10
2023-05-05T02:36:37.659Z,10.10
2023-05-05T02:39:12.555Z,10.00
2023-05-05T02:41:41.224Z,9.90
2023-05-05T02:44:09.383Z,9.90
2023-05-05T02:46:37.800Z,9.90
2023-05-05T02:49:04.444Z,9.90
2023-05-05T02:51:32.448Z,9.80
2023-05-05T02:53:59.636Z,9.80
2023-05-05T02:56:47.676Z,9.80
2023-05-05T02:59:34.259Z,9.80
2023-05-05T03:02:33.916Z,9.80
2023-05-05T03:05:10.882Z,9.70
2023-05-05T03:08:01.849Z,9.70
2023-05-05T03:10:36.989Z,9.70
2023-05-05T03:13:07.116Z,9.70
2023-05-05T03:15:43.024Z,9.70
2023-05-05T03:18:11.286Z,9.60
2023-05-05T03:20:40.981Z,9.70
2023-05-05T03:23:08.570Z,9.70
2023-05-05T03:25:43.483Z,9.70
2023-05-05T03:28:10.044Z,9.60
2023-05-05T03:30:36.597Z,9.60
2023-05-05T03:33:03.580Z,9.60
2023-05-05T03:35:30.282Z,9.60
2023-05-05T03:37:56.855Z,9.50
2023-05-05T03:40:32.657Z,9.50
2023-05-05T03:43:08.002Z,9.50
2023-05-05T03:45:34.562Z,9.30
2023-05-05T03:48:01.476Z,9.40
2023-05-05T03:50:28.086Z,9.40
2023-05-05T03:52:54.736Z,9.40
2023-05-05T03:55:21.339Z,9.40
2023-05-05T03:57:47.925Z,9.40
2023-05-05T04:00:15.172Z,9.40
2023-05-05T04:02:42.098Z,9.40
2023-05-05T04:05:09.797Z,9.40
2023-05-05T04:07:36.374Z,9.40
2023-05-05T04:10:03.284Z,9.50
2023-05-05T04:12:29.909Z,9.50
2023-05-05T04:14:56.539Z,9.40
2023-05-05T04:17:23.842Z,9.50
2023-05-05T04:19:50.481Z,9.40
2023-05-05T04:22:17.019Z,9.30
2023-05-05T04:24:43.535Z,9.40
2023-05-05T04:27:10.158Z,9.30
2023-05-05T04:29:36.733Z,9.30
2023-05-05T04:32:03.300Z,9.40
2023-05-05T04:34:29.912Z,9.40
2023-05-05T04:36:56.434Z,9.40
2023-05-05T04:39:23.031Z,9.40
2023-05-05T04:41:49.561Z,9.40
2023-05-05T04:44:16.079Z,9.40
2023-05-05T04:46:42.726Z,9.40
2023-05-05T04:49:09.409Z,9.40
2023-05-05T04:51:36.013Z,9.40
2023-05-05T04:54:02.555Z,9.50
2023-05-05T04:56:31.492Z,9.50
2023-05-05T04:58:58.160Z,9.40
2023-05-05T05:01:24.910Z,9.50
2023-05-05T05:03:51.476Z,9.50
2023-05-05T05:06:18.148Z,9.50
2023-05-05T05:08:44.707Z,9.50
2023-05-05T05:11:12.302Z,9.60
2023-05-05T05:13:38.876Z,9.60
2023-05-05T05:16:07.464Z,9.70
2023-05-05T05:18:34.048Z,9.80
2023-05-05T05:21:00.575Z,9.70
2023-05-05T05:23:27.090Z,9.80
2023-05-05T05:25:57.431Z,9.80
2023-05-05T05:28:24.055Z,9.80
2023-05-05T05:30:51.944Z,9.80
2023-05-05T05:33:18.881Z,9.90
2023-05-05T05:35:45.696Z,9.80
2023-05-05T05:38:12.322Z,9.80
2023-05-05T05:40:39.539Z,9.90
2023-05-05T05:43:08.445Z,9.90
2023-05-05T05:45:34.995Z,9.80
2023-05-05T05:48:01.674Z,9.80
2023-05-05T05:50:28.674Z,9.80
2023-05-05T05:52:55.837Z,9.90
2023-05-05T05:55:24.136Z,10.00
2023-05-05T05:57:50.727Z,10.00
2023-05-05T06:00:19.033Z,10.00
2023-05-05T06:02:46.772Z,10.10
2023-05-05T06:05:13.784Z,10.20
2023-05-05T06:07:42.190Z,10.30
2023-05-05T06:10:25.747Z,10.30
2023-05-05T06:12:53.716Z,10.30
2023-05-05T06:15:20.355Z,10.30
2023-05-05T06:17:48.692Z,10.40
2023-05-05T06:20:15.385Z,10.60
2023-05-05T06:22:43.911Z,10.60
2023-05-05T06:25:10.931Z,10.60
2023-05-05T06:27:39.413Z,10.70
2023-05-05T06:30:09.166Z,10.70
2023-05-05T06:32:35.973Z,10.80
2023-05-05T06:35:05.381Z,10.90
2023-05-05T06:37:31.960Z,10.90
2023-05-05T06:39:58.831Z,11.10
2023-05-05T06:42:25.353Z,11.10
2023-05-05T06:44:51.934Z,11.30
2023-05-05T06:47:18.484Z,11.40
2023-05-05T06:49:47.199Z,11.50
2023-05-05T06:52:13.768Z,11.50
2023-05-05T06:54:40.362Z,11.60
2023-05-05T06:57:06.933Z,11.60
2023-05-05T06:59:33.453Z,11.70
2023-05-05T07:02:00.071Z,11.80
2023-05-05T07:04:28.381Z,12.00
2023-05-05T07:06:55.170Z,12.10
2023-05-05T07:09:21.758Z,12.20
2023-05-05T07:11:48.284Z,12.30
2023-05-05T07:14:14.857Z,12.40
2023-05-05T07:16:41.597Z,12.50
2023-05-05T07:19:08.306Z,12.60
2023-05-05T07:21:36.607Z,12.70
2023-05-05T07:24:04.043Z,12.70
2023-05-05T07:26:30.851Z,12.70
2023-05-05T07:28:58.685Z,12.70
2023-05-05T07:31:26.197Z,12.70
2023-05-05T07:33:52.807Z,12.70
2023-05-05T07:36:19.438Z,12.70
2023-05-05T07:38:46.059Z,12.80
2023-05-05T07:41:12.977Z,12.70
2023-05-05T07:43:44.421Z,12.80
2023-05-05T07:46:11.512Z,12.90
2023-05-05T07:48:41.458Z,12.90
2023-05-05T07:51:08.847Z,12.90
2023-05-05T07:53:35.478Z,13.00
2023-05-05T07:56:04.367Z,13.10
2023-05-05T07:58:30.919Z,13.10
2023-05-05T08:00:57.600Z,13.20
2023-05-05T08:03:24.916Z,13.30
2023-05-05T08:05:54.373Z,13.40
2023-05-05T08:08:25.942Z,13.40
2023-05-05T08:10:53.105Z,13.40
2023-05-05T08:13:20.189Z,13.50
2023-05-05T08:15:46.913Z,13.50
2023-05-05T08:18:17.514Z,13.60
2023-05-05T08:20:44.206Z,13.70
2023-05-05T08:23:10.774Z,13.80
2023-05-05T08:25:40.205Z,13.90
2023-05-05T08:28:08.776Z,13.90
2023-05-05T08:30:35.608Z,14.10
2023-05-05T08:33:02.275Z,14.30
2023-05-05T08:35:28.893Z,14.40
2023-05-05T08:37:58.173Z,14.40
2023-05-05T08:40:34.574Z,14.40
2023-05-05T08:43:01.840Z,14.40
2023-05-05T08:45:32.637Z,14.50
2023-05-05T08:48:05.940Z,14.60
2023-05-05T08:50:32.927Z,14.80
2023-05-05T08:53:16.617Z,14.80
2023-05-05T08:55:55.972Z,15.00
2023-05-05T08:58:25.200Z,15.10
2023-05-05T09:00:54.474Z,15.30
2023-05-05T09:03:21.479Z,15.20
2023-05-05T09:05:48.393Z,15.30
2023-05-05T09:08:14.954Z,15.40
2023-05-05T09:10:42.393Z,15.50
2023-05-05T09:13:11.180Z,15.60
2023-05-05T09:15:39.011Z,15.60
2023-05-05T09:18:08.942Z,15.60
2023-05-05T09:20:37.933Z,15.60
2023-05-05T09:23:08.839Z,15.40
2023-05-05T09:25:35.740Z,15.40
2023-05-05T09:28:10.368Z,15.40
2023-05-05T09:30:37.857Z,15.40
2023-05-05T09:33:04.996Z,15.40
2023-05-05T09:35:51.293Z,15.30
2023-05-05T09:38:21.267Z,15.40
2023-05-05T09:40:49.405Z,15.40
2023-05-05T09:43:17.731Z,15.40
2023-05-05T09:45:44.334Z,15.50
2023-05-05T09:48:28.080Z,15.50
2023-05-05T09:50:55.660Z,15.50
2023-05-05T09:53:25.056Z,15.50
2023-05-05T09:55:58.993Z,15.50
2023-05-05T09:58:28.383Z,15.40
2023-05-05T10:00:59.110Z,15.40
2023-05-05T10:03:28.330Z,15.40
2023-05-05T10:05:57.085Z,15.40
2023-05-05T10:08:28.821Z,15.40
2023-05-05T10:10:57.490Z,15.40
2023-05-05T10:13:27.406Z,15.40
2023-05-05T10:15:56.386Z,15.40
2023-05-05T10:18:25.211Z,15.50
2023-05-05T10:20:59.762Z,15.50
2023-05-05T10:23:40.848Z,15.60
2023-05-05T10:26:13.921Z,15.50
2023-05-05T10:29:44.440Z,15.50
2023-05-05T10:33:00.852Z,15.60
2023-05-05T10:35:40.048Z,15.60
2023-05-05T10:38:12.473Z,15.70
2023-05-05T10:40:46.101Z,15.70
2023-05-05T10:43:14.628Z,15.70
2023-05-05T10:45:42.254Z,15.80
2023-05-05T10:48:22.559Z,15.90
2023-05-05T10:50:56.073Z,15.80
2023-05-05T10:53:27.997Z,15.90
2023-05-05T10:56:06.812Z,16.10
2023-05-05T10:58:41.093Z,16.20
2023-05-05T11:01:37.160Z,16.30
2023-05-05T11:04:23.497Z,16.50
2023-05-05T11:07:14.435Z,16.70
2023-05-05T11:09:58.899Z,17.00
2023-05-05T11:12:25.666Z,17.30
2023-05-05T11:15:23.351Z,17.20
2023-05-05T11:17:50.675Z,17.10
2023-05-05T11:20:17.537Z,17.20
2023-05-05T11:23:23.873Z,17.20
2023-05-05T11:25:51.508Z,17.30
2023-05-05T11:28:20.978Z,17.40
2023-05-05T11:30:56.860Z,17.40
2023-05-05T11:33:38.857Z,17.30
2023-05-05T11:36:13.889Z,17.40
2023-05-05T11:38:59.486Z,17.40
2023-05-05T11:41:37.787Z,17.50
2023-05-05T11:44:18.057Z,17.40
2023-05-05T11:46:54.125Z,17.40
2023-05-05T11:49:37.884Z,17.40
2023-05-05T11:52:05.869Z,17.60
2023-05-05T11:54:34.797Z,17.70
2023-05-05T11:57:04.973Z,17.80
2023-05-05T11:59:32.582Z,17.90
2023-05-05T12:01:59.810Z,17.80
2023-05-05T12:04:27.442Z,17.70
2023-05-05T12:06:55.410Z,17.60
2023-05-05T12:09:23.335Z,17.70
2023-05-05T12:11:53.952Z,17.70
2023-05-05T12:14:22.783Z,17.50
2023-05-05T12:17:08.766Z,17.50
2023-05-05T12:19:37.914Z,17.60
2023-05-05T12:22:05.069Z,17.60
2023-05-05T12:24:31.917Z,17.60
2023-05-05T12:27:12.894Z,17.70
2023-05-05T12:29:39.517Z,17.70
2023-05-05T12:32:06.349Z,17.70
2023-05-05T12:34:33.376Z,17.70
2023-05-05T12:37:00.912Z,17.70
2023-05-05T12:39:36.869Z,17.70
2023-05-05T12:42:06.515Z,17.80
2023-05-05T12:44:37.570Z,17.60
2023-05-05T12:47:06.776Z,17.60
2023-05-05T12:49:50.274Z,17.60
2023-05-05T12:52:17.258Z,17.60
2023-05-05T12:55:00.435Z,17.70
2023-05-05T12:57:27.133Z,17.70
2023-05-05T12:59:54.019Z,17.80
2023-05-05T13:02:21.114Z,17.70
2023-05-05T13:04:50.134Z,17.60
2023-05-05T13:07:19.401Z,17.60
2023-05-05T13:09:47.997Z,17.70
2023-05-05T13:12:20.260Z,17.80
2023-05-05T13:14:47.148Z,17.80
2023-05-05T13:17:14.541Z,17.90
2023-05-05T13:19:46.225Z,17.80
2023-05-05T13:22:13.499Z,17.70
2023-05-05T13:24:50.597Z,17.70
2023-05-05T13:27:21.498Z,17.60
2023-05-05T13:29:48.027Z,17.70
2023-05-05T13:32:14.701Z,17.60
2023-05-05T13:34:42.477Z,17.60
2023-05-05T13:37:09.573Z,17.60
2023-05-05T13:39:36.785Z,17.80
2023-05-05T13:42:03.412Z,17.80
2023-05-05T13:44:29.992Z,18.00
2023-05-05T13:46:58.482Z,18.20
2023-05-05T13:49:25.604Z,18.20
2023-05-05T13:51:52.167Z,18.20
2023-05-05T13:54:18.820Z,18.10
2023-05-05T13:56:46.386Z,18.40
2023-05-05T13:59:13.206Z,18.60
2023-05-05T14:01:39.790Z,18.90
2023-05-05T14:04:06.489Z,19.00
2023-05-05T14:06:33.635Z,19.00
2023-05-05T14:09:00.549Z,19.00
2023-05-05T14:11:27.426Z,19.00
2023-05-05T14:13:55.464Z,19.00
2023-05-05T14:16:22.106Z,18.90
2023-05-05T14:18:48.825Z,18.60
2023-05-05T14:21:15.381Z,18.40
2023-05-05T14:23:42.859Z,18.00
2023-05-05T14:26:09.604Z,18.00
2023-05-05T14:28:36.225Z,17.90
2023-05-05T14:31:02.819Z,17.90
2023-05-05T14:33:29.395Z,17.90
2023-05-05T14:35:56.094Z,17.80
2023-05-05T14:38:22.741Z,17.80
2023-05-05T14:40:49.839Z,17.70
2023-05-05T14:43:16.642Z,17.70
2023-05-05T14:45:46.136Z,17.90
2023-05-05T14:48:12.729Z,18.10
2023-05-05T14:50:42.543Z,18.20
2023-05-05T14:53:09.181Z,18.20
2023-05-05T14:55:35.775Z,18.40
2023-05-05T14:58:02.302Z,18.50
2023-05-05T15:00:28.941Z,18.10
2023-05-05T15:02:55.692Z,17.90
2023-05-05T15:05:22.377Z,17.80
2023-05-05T15:07:48.981Z,17.70
2023-05-05T15:10:18.218Z,17.60
2023-05-05T15:12:46.339Z,17.40
2023-05-05T15:15:15.542Z,17.20
2023-05-05T15:17:44.578Z,16.90
2023-05-05T15:20:13.480Z,16.70
2023-05-05T15:22:40.060Z,16.70
2023-05-05T15:25:10.727Z,16.70
2023-05-05T15:27:38.207Z,16.60
2023-05-05T15:30:07.837Z,16.50
2023-05-05T15:32:34.482Z,16.50
2023-05-05T15:35:01.490Z,16.50
2023-05-05T15:37:28.976Z,16.50
2023-05-05T15:39:55.699Z,16.50
2023-05-05T15:42:23.729Z,16.60
2023-05-05T15:44:52.832Z,16.60
2023-05-05T15:47:19.425Z,16.50
2023-05-05T15:49:46.336Z,16.40
2023-05-05T15:52:13.880Z,16.30
2023-05-05T15:54:43.152Z,16.20
2023-05-05T15:57:10.015Z,16.20
2023-05-05T15:59:36.635Z,16.20
2023-05-05T16:02:03.417Z,16.10
2023-05-05T16:04:30.157Z,16.10
2023-05-05T16:06:57.912Z,16.10
2023-05-05T16:09:24.467Z,16.00
2023-05-05T16:11:53.506Z,15.90
2023-05-05T16:14:20.206Z,15.80
2023-05-05T16:16:50.221Z,15.80
2023-05-05T16:19:18.064Z,15.70
2023-05-05T16:21:44.830Z,15.60
2023-05-05T16:24:15.987Z,15.50
2023-05-05T16:26:43.571Z,15.60
2023-05-05T16:29:10.522Z,15.60
2023-05-05T16:31:39.527Z,15.50
2023-05-05T16:34:11.156Z,15.50
2023-05-05T16:36:37.725Z,15.50
2023-05-05T16:39:06.259Z,15.50
2023-05-05T16:41:32.851Z,15.40
2023-05-05T16:43:59.401Z,15.40
2023-05-05T16:46:26.039Z,15.30
2023-05-05T16:48:54.374Z,15.30
2023-05-05T16:51:20.935Z,15.40
2023-05-05T16:53:48.923Z,15.30
2023-05-05T16:56:15.689Z,15.20
2023-05-05T16:58:42.307Z,15.30
2023-05-05T17:01:08.903Z,15.20
2023-05-05T17:03:36.090Z,15.20
2023-05-05T17:06:03.119Z,15.10
2023-05-05T17:08:30.315Z,15.10
2023-05-05T17:10:56.890Z,14.90
2023-05-05T17:13:23.968Z,14.80
2023-05-05T17:15:51.234Z,14.80
2023-05-05T17:18:20.947Z,14.70
2023-05-05T17:20:49.175Z,14.60
2023-05-05T17:23:16.562Z,14.60
2023-05-05T17:25:45.131Z,14.60
2023-05-05T17:28:11.657Z,14.70
2023-05-05T17:30:38.192Z,14.60
2023-05-05T17:33:04.819Z,14.50
2023-05-05T17:35:31.815Z,14.50
2023-05-05T17:37:58.441Z,14.50
2023-05-05T17:40:25.144Z,14.50
2023-05-05T17:42:51.792Z,14.40
2023-05-05T17:45:18.455Z,14.50
2023-05-05T17:47:45.061Z,14.50
2023-05-05T17:50:12.377Z,14.50
2023-05-05T17:52:40.485Z,14.30
2023-05-05T17:55:07.574Z,14.40
2023-05-05T17:57:35.229Z,14.40
2023-05-05T18:00:04.436Z,14.40
2023-05-05T18:02:32.890Z,14.30
2023-05-05T18:04:59.592Z,14.30
2023-05-05T18:07:27.864Z,14.40
2023-05-05T18:09:56.381Z,14.40
2023-05-05T18:12:22.997Z,14.30
2023-05-05T18:14:49.521Z,14.30
2023-05-05T18:17:16.119Z,14.40
2023-05-05T18:19:48.981Z,14.30
2023-05-05T18:22:17.856Z,14.30
2023-05-05T18:24:45.481Z,14.20
2023-05-05T18:27:12.266Z,14.30
2023-05-05T18:29:38.864Z,14.20
2023-05-05T18:32:06.533Z,14.10
2023-05-05T18:34:34.118Z,14.00
2023-05-05T18:37:00.714Z,14.00
2023-05-05T18:39:27.393Z,13.90
2023-05-05T18:41:53.959Z,13.90
2023-05-05T18:44:20.513Z,13.80
2023-05-05T18:46:47.732Z,13.70
2023-05-05T18:49:14.319Z,13.70
2023-05-05T18:51:42.573Z,13.50
2023-05-05T18:54:09.650Z,13.40
2023-05-05T18:56:36.514Z,13.40
2023-05-05T18:59:03.216Z,13.40
2023-05-05T19:01:29.802Z,13.40
2023-05-05T19:03:56.416Z,13.40
2023-05-05T19:06:22.996Z,13.40
2023-05-05T19:08:49.765Z,13.30
2023-05-05T19:11:16.366Z,13.20
2023-05-05T19:13:43.026Z,13.20
2023-05-05T19:16:10.865Z,13.10
2023-05-05T19:18:39.178Z,13.10
2023-05-05T19:21:07.692Z,12.90
2023-05-05T19:23:35.933Z,12.80
2023-05-05T19:26:05.815Z,12.60
2023-05-05T19:28:32.677Z,12.50
2023-05-05T19:31:00.817Z,12.60
2023-05-05T19:33:27.388Z,12.60
2023-05-05T19:35:53.972Z,12.50
2023-05-05T19:38:20.537Z,12.40
2023-05-05T19:40:47.190Z,12.40
2023-05-05T19:43:13.815Z,12.30
2023-05-05T19:45:42.101Z,12.20
2023-05-05T19:48:08.681Z,12.10
2023-05-05T19:50:36.493Z,12.00
2023-05-05T19:53:03.559Z,12.00
2023-05-05T19:55:30.262Z,11.90
2023-05-05T19:57:56.823Z,11.90
2023-05-05T20:00:25.305Z,12.00
2023-05-05T20:02:52.641Z,12.00
2023-05-05T20:05:21.066Z,12.00
2023-05-05T20:07:47.705Z,11.90
2023-05-05T20:10:14.525Z,11.90
2023-05-05T20:12:48.822Z,11.80
2023-05-05T20:15:19.509Z,11.70
2023-05-05T20:17:47.755Z,11.60
2023-05-05T20:20:20.746Z,11.40
2023-05-05T20:22:49.937Z,11.50
2023-05-05T20:25:16.726Z,11.40
2023-05-05T20:27:43.810Z,11.30
2023-05-05T20:30:12.024Z,11.30
2023-05-05T20:32:38.877Z,11.30
2023-05-05T20:35:06.058Z,11.30
2023-05-05T20:37:32.649Z,11.30
2023-05-05T20:39:59.269Z,11.30
2023-05-05T20:42:26.250Z,11.20
2023-05-05T20:44:52.850Z,11.10
2023-05-05T20:47:19.452Z,11.10
2023-05-05T20:49:46.186Z,11.00
2023-05-05T20:52:12.759Z,10.90
2023-05-05T20:54:39.443Z,10.90
2023-05-05T20:57:07.095Z,10.80
2023-05-05T20:59:35.584Z,10.80
2023-05-05T21:02:02.200Z,10.70
2023-05-05T21:04:28.824Z,10.80
2023-05-05T21:06:55.765Z,10.70
2023-05-05T21:09:23.265Z,10.70
2023-05-05T21:11:50.025Z,10.60
2023-05-05T21:14:16.655Z,10.60
2023-05-05T21:16:43.288Z,10.60
2023-05-05T21:19:09.889Z,10.50
2023-05-05T21:21:36.662Z,10.40
2023-05-05T21:24:04.896Z,10.40
2023-05-05T21:26:32.806Z,10.40
2023-05-05T21:28:59.329Z,10.40
2023-05-05T21:31:25.901Z,10.30
2023-05-05T21:33:52.502Z,10.40
2023-05-05T21:36:19.393Z,10.30
2023-05-05T21:38:46.059Z,10.30
2023-05-05T21:41:12.811Z,10.20
2023-05-05T21:43:39.624Z,10.20
2023-05-05T21:46:06.630Z,10.20
2023-05-05T21:48:33.407Z,10.20
2023-05-05T21:51:00.030Z,10.20
2023-05-05T21:53:26.664Z,10.00
2023-05-05T21:55:53.245Z,10.00
2023-05-05T21:58:19.856Z,10.00
2023-05-05T22:00:49.381Z,10.10
2023-05-05T22:03:16.218Z,10.10
2023-05-05T22:05:43.027Z,10.10
2023-05-05T22:08:09.593Z,10.00
2023-05-05T22:10:36.229Z,10.00
2023-05-05T22:13:02.880Z,10.00
2023-05-05T22:15:42.626Z,10.00
2023-05-05T22:18:12.966Z,9.90
2023-05-05T22:20:40.666Z,10.00
2023-05-05T22:23:07.310Z,10.00
2023-05-05T22:25:33.944Z,9.80
2023-05-05T22:28:00.567Z,9.90
2023-05-05T22:30:27.200Z,9.90
2023-05-05T22:32:54.095Z,9.90
2023-05-05T22:35:20.821Z,9.80
2023-05-05T22:37:48.581Z,9.80
2023-05-05T22:40:15.221Z,9.80
2023-05-05T22:42:41.793Z,9.70
2023-05-05T22:45:09.662Z,9.80
2023-05-05T22:47:36.544Z,9.80
2023-05-05T22:50:03.190Z,9.80
2023-05-05T22:52:29.954Z,9.80
2023-05-05T22:54:56.561Z,9.80
2023-05-05T22:57:23.471Z,9.90
2023-05-05T22:59:50.284Z,9.80
2023-05-05T23:02:16.948Z,9.80
2023-05-05T23:04:44.862Z,9.70
2023-05-05T23:07:12.753Z,9.70
2023-05-05T23:09:39.599Z,9.80
2023-05-05T23:12:06.677Z,9.80
2023-05-05T23:14:33.326Z,9.80
2023-05-05T23:16:59.955Z,9.80
2023-05-05T23:19:28.835Z,9.80
2023-05-05T23:21:55.580Z,9.70
2023-05-05T23:24:22.170Z,9.70
2023-05-05T23:26:48.755Z,9.70
2023-05-05T23:29:15.331Z,9.70
2023-05-05T23:31:41.963Z,9.70
2023-05-05T23:34:08.569Z,9.70
2023-05-05T23:36:35.173Z,9.80
2023-05-05T23:39:01.808Z,9.70
2023-05-05T23:41:28.384Z,9.70
2023-05-05T23:43:56.406Z,9.80
2023-05-05T23:46:23.883Z,9.70
2023-05-05T23:48:50.991Z,9.80
2023-05-05T23:51:17.720Z,9.80
2023-05-05T23:53:44.319Z,9.80
2023-05-05T23:56:11.274Z,9.80
2023-05-05T23:58:37.854Z,9.80
